Salina Municipal Airport
KSLN : now visible

Airfield :











YOU CAN JOIN US ON...

 
LOGIN :

Register | Disclaimer

   EN    FR    IT 

 









Legend :    VFR   Marginal VFR   IFR   Intensive IFR   Very Intensive IFR
Visi :
Ceiling :
>= 8 km
>= 3000ft
5 to 8 km
1000 to 3000 ft
1500m to 5 km
500 to 1000 ft
800 to 1500m
200 to 500 ft
< 800m
< 200 ft
Symbols :   Thunderstorms  Fog  Heavy snow  Heavy precipitations  Wind > 20 kt







- Airport Elevation : 1288 ft
- IATA code : SLN


KSLN - Salina Municipal

CURRENT METAR :
  • 192153Z 28006KT 10SM FEW046 19/07 A2995 RMK AO2 SLP135 T01890072

EXPIRED METARs :
  • 192053Z 30011KT 10SM FEW043 18/08 A2997 RMK AO2 SLP142 T01830078 53001
  • 191953Z 29012KT 10SM FEW041 18/08 A2996 RMK AO2 SLP141 T01830083

TAF KSLN
Valid from the 19 at 18:00 until the 20 at 18:00 UTC


191720Z 1918/2018 31016KT P6SM FEW130
FM192300 34009KT P6SM FEW250
FM201400 08012KT P6SM BKN090
KZKC FIR / North America



MET'MAP, your aeronautical weather chart ! - Copyright ORBIFLY December 2007 - Disclaimer

ORBIFLY MET'MAP TEAM :

Programming & Development : Alexandra Zaïnal
Concept & Development : Baudouin d'Aumeries
Co-Development & Prog : Marc-Olivier Méhu
Technical & hardware support : Manuel Goepfert

Contact : metmap@orbifly.com




SOURCES & CREDITS :

   NOAA       Earth
Advisory